PWSweather.com
Personal Weather Stations
Station Observations
NAGEO265NE
Bedzin GrodziecPL 42-506

Bedzin GrodziecPL 42-506

Lat: 50.347, Lon: 19.079

Elevation: 948

Station Type: WH1080

http://www.meteo-grodziec.pl/

High Low Average
Temperature 41.2°F5.1°F 28.8°F-1.8°F 34.5°F1.4°F
Dew Point 35.8°F2.1°F 27.5°F-2.5°F 30.8°F-0.7°F
Winds 16.0 mph SW25.7 mph SW Calm Calm 4.9 mph 7.9 mph
Wind Gusts 37.0 mph59.5 mph -- 11.9 mph19.2 mph
Humidity 96% 65% 87%
Pressure 29.74 in1007.10 in 29.31 in992.60 in -
Precipitation 1.15 in29.20 in - -
Hour Temp Dew Point Humidity Winds Wind Gusts Pressure Precip Precip Rate Daily Precip Total
12:00 AM 31.5°F-0.3°C 30.6°F-0.8°C 96% Calm Calm 1.0 mph1.6 kmh 29.62 in1003.0 mb 0.00 in0.0 mm 0.00 in0.0 mm 0.00 in0.0 mm
12:05 AM 31.3°F-0.4°C 30.4°F-0.9°C 96% Calm Calm 1.0 mph1.6 kmh 29.62 in1003.0 mb 0.00 in0.0 mm 0.00 in0.0 mm 0.00 in0.0 mm
12:10 AM 31.1°F-0.5°C 30.0°F-1.1°C 96% Calm Calm 1.0 mph1.6 kmh 29.62 in1003.0 mb 0.00 in0.0 mm 0.00 in0.0 mm 0.00 in0.0 mm
12:15 AM 30.7°F-0.7°C 29.8°F-1.2°C 96% Calm Calm 1.0 mph1.6 kmh 29.62 in1003.0 mb 0.00 in0.0 mm 0.00 in0.0 mm 0.00 in0.0 mm
12:20 AM 30.6°F-0.8°C 29.7°F-1.3°C 96% Calm Calm 1.0 mph1.6 kmh 29.63 in1003.4 mb 0.00 in0.0 mm 0.00 in0.0 mm 0.00 in0.0 mm
12:25 AM 30.4°F-0.9°C 29.5°F-1.4°C 96% Calm Calm 1.0 mph1.6 kmh 29.63 in1003.4 mb 0.00 in0.0 mm 0.00 in0.0 mm 0.00 in0.0 mm
12:30 AM 30.2°F-1.0°C 29.1°F-1.6°C 96% Calm Calm 1.0 mph1.6 kmh 29.63 in1003.4 mb 0.00 in0.0 mm 0.00 in0.0 mm 0.00 in0.0 mm
12:35 AM 30.2°F-1.0°C 29.1°F-1.6°C 96% Calm Calm 1.0 mph1.6 kmh 29.63 in1003.4 mb 0.00 in0.0 mm 0.00 in0.0 mm 0.00 in0.0 mm
12:40 AM 30.4°F-0.9°C 29.3°F-1.5°C 96% Calm Calm 1.0 mph1.6 kmh 29.63 in1003.4 mb 0.00 in0.0 mm 0.00 in0.0 mm 0.00 in0.0 mm
12:45 AM 30.4°F-0.9°C 29.5°F-1.4°C 96% Calm Calm 1.0 mph1.6 kmh 29.64 in1003.7 mb 0.00 in0.0 mm 0.00 in0.0 mm 0.00 in0.0 mm
12:50 AM 30.6°F-0.8°C 29.5°F-1.4°C 96% Calm Calm 1.0 mph1.6 kmh 29.64 in1003.7 mb 0.00 in0.0 mm 0.00 in0.0 mm 0.00 in0.0 mm
12:55 AM 30.6°F-0.8°C 29.7°F-1.3°C 96% Calm Calm 1.0 mph1.6 kmh 29.64 in1003.7 mb 0.00 in0.0 mm 0.00 in0.0 mm 0.00 in0.0 mm
01:00 AM 30.6°F-0.8°C 29.7°F-1.3°C 96% Calm Calm 1.0 mph1.6 kmh 29.64 in1003.7 mb 0.00 in0.0 mm 0.00 in0.0 mm 0.00 in0.0 mm
01:05 AM 30.7°F-0.7°C 29.7°F-1.3°C 96% Calm Calm 2.0 mph3.2 kmh 29.64 in1003.7 mb 0.00 in0.0 mm 0.00 in0.0 mm 0.00 in0.0 mm
01:10 AM 30.7°F-0.7°C 29.7°F-1.3°C 96% Calm Calm 4.0 mph6.4 kmh 29.64 in1003.7 mb 0.00 in0.0 mm 0.00 in0.0 mm 0.00 in0.0 mm
01:15 AM 30.7°F-0.7°C 29.8°F-1.2°C 96% Calm Calm 4.0 mph6.4 kmh 29.64 in1003.7 mb 0.00 in0.0 mm 0.00 in0.0 mm 0.00 in0.0 mm
01:20 AM 30.7°F-0.7°C 29.8°F-1.2°C 96% Calm Calm 3.0 mph4.8 kmh 29.64 in1003.7 mb 0.00 in0.0 mm 0.00 in0.0 mm 0.00 in0.0 mm
01:25 AM 30.7°F-0.7°C 29.8°F-1.2°C 96% Calm Calm 2.0 mph3.2 kmh 29.64 in1003.7 mb 0.00 in0.0 mm 0.00 in0.0 mm 0.00 in0.0 mm
01:30 AM 30.7°F-0.7°C 29.8°F-1.2°C 96% Calm Calm 2.0 mph3.2 kmh 29.64 in1003.7 mb 0.00 in0.0 mm 0.00 in0.0 mm 0.00 in0.0 mm
01:35 AM 30.7°F-0.7°C 29.8°F-1.2°C 96% Calm Calm 2.0 mph3.2 kmh 29.64 in1003.7 mb 0.00 in0.0 mm 0.00 in0.0 mm 0.00 in0.0 mm
01:40 AM 30.7°F-0.7°C 29.5°F-1.4°C 95% Calm Calm 2.0 mph3.2 kmh 29.65 in1004.1 mb 0.00 in0.0 mm 0.00 in0.0 mm 0.00 in0.0 mm
01:45 AM 30.7°F-0.7°C 29.5°F-1.4°C 95% Calm Calm 4.0 mph6.4 kmh 29.65 in1004.1 mb 0.00 in0.0 mm 0.00 in0.0 mm 0.00 in0.0 mm
01:50 AM 30.7°F-0.7°C 29.5°F-1.4°C 95% Calm Calm 4.0 mph6.4 kmh 29.65 in1004.1 mb 0.00 in0.0 mm 0.00 in0.0 mm 0.00 in0.0 mm
01:55 AM 30.7°F-0.7°C 29.5°F-1.4°C 95% Calm Calm 4.0 mph6.4 kmh 29.65 in1004.1 mb 0.00 in0.0 mm 0.00 in0.0 mm 0.00 in0.0 mm
02:00 AM 30.7°F-0.7°C 29.5°F-1.4°C 95% Calm Calm 4.0 mph6.4 kmh 29.65 in1004.1 mb 0.00 in0.0 mm 0.00 in0.0 mm 0.00 in0.0 mm
02:05 AM 30.7°F-0.7°C 29.1°F-1.6°C 94% Calm Calm 2.0 mph3.2 kmh 29.66 in1004.4 mb 0.00 in0.0 mm 0.00 in0.0 mm 0.00 in0.0 mm
02:10 AM 30.6°F-0.8°C 29.1°F-1.6°C 94% Calm Calm 1.0 mph1.6 kmh 29.66 in1004.4 mb 0.00 in0.0 mm 0.00 in0.0 mm 0.00 in0.0 mm
02:15 AM 30.6°F-0.8°C 29.1°F-1.6°C 94% Calm Calm 1.0 mph1.6 kmh 29.66 in1004.4 mb 0.00 in0.0 mm 0.00 in0.0 mm 0.00 in0.0 mm
02:20 AM 30.6°F-0.8°C 28.9°F-1.7°C 94% Calm Calm 1.0 mph1.6 kmh 29.66 in1004.4 mb 0.00 in0.0 mm 0.00 in0.0 mm 0.00 in0.0 mm
02:25 AM 30.6°F-0.8°C 28.9°F-1.7°C 94% Calm Calm 1.0 mph1.6 kmh 29.66 in1004.4 mb 0.00 in0.0 mm 0.00 in0.0 mm 0.00 in0.0 mm
02:30 AM 30.6°F-0.8°C 28.9°F-1.7°C 94% Calm Calm 1.0 mph1.6 kmh 29.66 in1004.4 mb 0.00 in0.0 mm 0.00 in0.0 mm 0.00 in0.0 mm
02:35 AM 30.4°F-0.9°C 28.9°F-1.7°C 94% Calm Calm 1.0 mph1.6 kmh 29.66 in1004.4 mb 0.00 in0.0 mm 0.00 in0.0 mm 0.00 in0.0 mm
02:40 AM 30.4°F-0.9°C 28.9°F-1.7°C 94% Calm Calm 1.0 mph1.6 kmh 29.66 in1004.4 mb 0.00 in0.0 mm 0.00 in0.0 mm 0.00 in0.0 mm
02:45 AM 30.2°F-1.0°C 28.4°F-2.0°C 93% Calm Calm 2.0 mph3.2 kmh 29.66 in1004.4 mb 0.00 in0.0 mm 0.00 in0.0 mm 0.00 in0.0 mm
02:50 AM 30.2°F-1.0°C 28.4°F-2.0°C 93% Calm Calm 2.0 mph3.2 kmh 29.66 in1004.4 mb 0.00 in0.0 mm 0.00 in0.0 mm 0.00 in0.0 mm
02:55 AM 30.2°F-1.0°C 28.4°F-2.0°C 93% Calm Calm 3.0 mph4.8 kmh 29.67 in1004.7 mb 0.00 in0.0 mm 0.00 in0.0 mm 0.00 in0.0 mm
03:00 AM 30.6°F-0.8°C 28.8°F-1.8°C 93% 1.0 mph WSW1.6 kmh WSW 5.0 mph8.0 kmh 29.67 in1004.7 mb 0.00 in0.0 mm 0.00 in0.0 mm 0.00 in0.0 mm
03:05 AM 30.6°F-0.8°C 28.8°F-1.8°C 93% 1.0 mph WSW1.6 kmh WSW 5.0 mph8.0 kmh 29.67 in1004.7 mb 0.00 in0.0 mm 0.00 in0.0 mm 0.00 in0.0 mm
03:10 AM 30.7°F-0.7°C 28.9°F-1.7°C 93% 1.0 mph WSW1.6 kmh WSW 10.0 mph16.1 kmh 29.67 in1004.7 mb 0.00 in0.0 mm 0.00 in0.0 mm 0.00 in0.0 mm
03:15 AM 30.7°F-0.7°C 28.6°F-1.9°C 92% 1.0 mph WSW1.6 kmh WSW 10.0 mph16.1 kmh 29.67 in1004.7 mb 0.00 in0.0 mm 0.00 in0.0 mm 0.00 in0.0 mm
03:20 AM 30.6°F-0.8°C 28.6°F-1.9°C 92% 1.0 mph WSW1.6 kmh WSW 7.0 mph11.3 kmh 29.67 in1004.7 mb 0.00 in0.0 mm 0.00 in0.0 mm 0.00 in0.0 mm
03:25 AM 30.6°F-0.8°C 28.6°F-1.9°C 92% 1.0 mph WSW1.6 kmh WSW 7.0 mph11.3 kmh 29.68 in1005.1 mb 0.00 in0.0 mm 0.00 in0.0 mm 0.00 in0.0 mm
03:30 AM 30.4°F-0.9°C 28.4°F-2.0°C 92% 1.0 mph WSW1.6 kmh WSW 5.0 mph8.0 kmh 29.68 in1005.1 mb 0.00 in0.0 mm 0.00 in0.0 mm 0.00 in0.0 mm
03:35 AM 30.4°F-0.9°C 28.6°F-1.9°C 93% 1.0 mph WSW1.6 kmh WSW 5.0 mph8.0 kmh 29.68 in1005.1 mb 0.00 in0.0 mm 0.00 in0.0 mm 0.00 in0.0 mm
03:40 AM 30.4°F-0.9°C 28.6°F-1.9°C 93% 1.0 mph SW1.6 kmh SW 4.0 mph6.4 kmh 29.68 in1005.1 mb 0.00 in0.0 mm 0.00 in0.0 mm 0.00 in0.0 mm
03:45 AM 30.4°F-0.9°C 28.6°F-1.9°C 93% Calm Calm 5.0 mph8.0 kmh 29.68 in1005.1 mb 0.00 in0.0 mm 0.00 in0.0 mm 0.00 in0.0 mm
03:50 AM 30.6°F-0.8°C 28.8°F-1.8°C 93% 1.0 mph W1.6 kmh W 5.0 mph8.0 kmh 29.68 in1005.1 mb 0.00 in0.0 mm 0.00 in0.0 mm 0.00 in0.0 mm
03:55 AM 30.4°F-0.9°C 28.9°F-1.7°C 94% Calm Calm 4.0 mph6.4 kmh 29.68 in1005.1 mb 0.00 in0.0 mm 0.00 in0.0 mm 0.00 in0.0 mm
04:00 AM 30.2°F-1.0°C 28.8°F-1.8°C 94% Calm Calm 3.0 mph4.8 kmh 29.68 in1005.1 mb 0.00 in0.0 mm 0.00 in0.0 mm 0.00 in0.0 mm
04:05 AM 30.0°F-1.1°C 28.6°F-1.9°C 94% Calm Calm 3.0 mph4.8 kmh 29.68 in1005.1 mb 0.00 in0.0 mm 0.00 in0.0 mm 0.00 in0.0 mm
04:10 AM 30.0°F-1.1°C 28.4°F-2.0°C 94% Calm Calm 3.0 mph4.8 kmh 29.68 in1005.1 mb 0.00 in0.0 mm 0.00 in0.0 mm 0.00 in0.0 mm
04:15 AM 30.0°F-1.1°C 28.4°F-2.0°C 94% Calm Calm 3.0 mph4.8 kmh 29.68 in1005.1 mb 0.00 in0.0 mm 0.00 in0.0 mm 0.00 in0.0 mm
04:20 AM 30.0°F-1.1°C 28.4°F-2.0°C 94% Calm Calm 2.0 mph3.2 kmh 29.68 in1005.1 mb 0.00 in0.0 mm 0.00 in0.0 mm 0.00 in0.0 mm
04:25 AM 30.0°F-1.1°C 28.4°F-2.0°C 94% Calm Calm 3.0 mph4.8 kmh 29.69 in1005.4 mb 0.00 in0.0 mm 0.00 in0.0 mm 0.00 in0.0 mm
04:30 AM 30.0°F-1.1°C 28.8°F-1.8°C 95% 1.0 mph WSW1.6 kmh WSW 3.0 mph4.8 kmh 29.69 in1005.4 mb 0.00 in0.0 mm 0.00 in0.0 mm 0.00 in0.0 mm
04:35 AM 30.0°F-1.1°C 28.8°F-1.8°C 95% 1.0 mph WSW1.6 kmh WSW 3.0 mph4.8 kmh 29.69 in1005.4 mb 0.00 in0.0 mm 0.00 in0.0 mm 0.00 in0.0 mm
04:40 AM 29.8°F-1.2°C 28.6°F-1.9°C 95% 1.0 mph SW1.6 kmh SW 4.0 mph6.4 kmh 29.70 in1005.8 mb 0.00 in0.0 mm 0.00 in0.0 mm 0.00 in0.0 mm
04:45 AM 29.7°F-1.3°C 28.4°F-2.0°C 95% 1.0 mph WSW1.6 kmh WSW 4.0 mph6.4 kmh 29.70 in1005.8 mb 0.00 in0.0 mm 0.00 in0.0 mm 0.00 in0.0 mm
04:50 AM 29.7°F-1.3°C 28.4°F-2.0°C 95% 1.0 mph WSW1.6 kmh WSW 4.0 mph6.4 kmh 29.70 in1005.8 mb 0.00 in0.0 mm 0.00 in0.0 mm 0.00 in0.0 mm
04:55 AM 29.8°F-1.2°C 28.6°F-1.9°C 95% 1.0 mph WSW1.6 kmh WSW 3.0 mph4.8 kmh 29.70 in1005.8 mb 0.00 in0.0 mm 0.00 in0.0 mm 0.00 in0.0 mm
05:00 AM 29.8°F-1.2°C 28.6°F-1.9°C 95% 1.0 mph WSW1.6 kmh WSW 3.0 mph4.8 kmh 29.70 in1005.8 mb 0.00 in0.0 mm 0.00 in0.0 mm 0.00 in0.0 mm
05:05 AM 29.8°F-1.2°C 28.6°F-1.9°C 95% Calm Calm 3.0 mph4.8 kmh 29.70 in1005.8 mb 0.00 in0.0 mm 0.00 in0.0 mm 0.00 in0.0 mm
05:10 AM 29.8°F-1.2°C 28.6°F-1.9°C 95% Calm Calm 3.0 mph4.8 kmh 29.70 in1005.8 mb 0.00 in0.0 mm 0.00 in0.0 mm 0.00 in0.0 mm
05:15 AM 29.7°F-1.3°C 28.4°F-2.0°C 95% Calm Calm 3.0 mph4.8 kmh 29.70 in1005.8 mb 0.00 in0.0 mm 0.00 in0.0 mm 0.00 in0.0 mm
05:20 AM 29.7°F-1.3°C 28.4°F-2.0°C 95% Calm Calm 3.0 mph4.8 kmh 29.70 in1005.8 mb 0.00 in0.0 mm 0.00 in0.0 mm 0.00 in0.0 mm
05:25 AM 29.3°F-1.5°C 28.0°F-2.2°C 95% Calm Calm 1.0 mph1.6 kmh 29.70 in1005.8 mb 0.00 in0.0 mm 0.00 in0.0 mm 0.00 in0.0 mm
05:30 AM 29.1°F-1.6°C 27.9°F-2.3°C 95% Calm Calm 1.0 mph1.6 kmh 29.70 in1005.8 mb 0.00 in0.0 mm 0.00 in0.0 mm 0.00 in0.0 mm
05:35 AM 28.9°F-1.7°C 27.7°F-2.4°C 95% Calm Calm -- 29.70 in1005.8 mb 0.00 in0.0 mm 0.00 in0.0 mm 0.00 in0.0 mm
05:40 AM 28.8°F-1.8°C 27.5°F-2.5°C 95% Calm Calm -- 29.71 in1006.1 mb 0.00 in0.0 mm 0.00 in0.0 mm 0.00 in0.0 mm
05:45 AM 28.8°F-1.8°C 27.5°F-2.5°C 95% Calm Calm 1.0 mph1.6 kmh 29.70 in1005.8 mb 0.00 in0.0 mm 0.00 in0.0 mm 0.00 in0.0 mm
05:50 AM 28.8°F-1.8°C 27.5°F-2.5°C 95% Calm Calm 1.0 mph1.6 kmh 29.71 in1006.1 mb 0.00 in0.0 mm 0.00 in0.0 mm 0.00 in0.0 mm
05:55 AM 28.8°F-1.8°C 27.5°F-2.5°C 95% Calm Calm 1.0 mph1.6 kmh 29.71 in1006.1 mb 0.00 in0.0 mm 0.00 in0.0 mm 0.00 in0.0 mm
06:00 AM 28.8°F-1.8°C 27.5°F-2.5°C 95% Calm Calm 1.0 mph1.6 kmh 29.70 in1005.8 mb 0.00 in0.0 mm 0.00 in0.0 mm 0.00 in0.0 mm
06:05 AM 28.9°F-1.7°C 27.7°F-2.4°C 95% Calm Calm 1.0 mph1.6 kmh 29.71 in1006.1 mb 0.00 in0.0 mm 0.00 in0.0 mm 0.00 in0.0 mm
06:10 AM 28.9°F-1.7°C 27.7°F-2.4°C 95% Calm Calm 1.0 mph1.6 kmh 29.71 in1006.1 mb 0.00 in0.0 mm 0.00 in0.0 mm 0.00 in0.0 mm
06:15 AM 29.1°F-1.6°C 27.9°F-2.3°C 95% Calm Calm 3.0 mph4.8 kmh 29.71 in1006.1 mb 0.00 in0.0 mm 0.00 in0.0 mm 0.00 in0.0 mm
06:20 AM 29.1°F-1.6°C 27.9°F-2.3°C 95% Calm Calm 3.0 mph4.8 kmh 29.71 in1006.1 mb 0.00 in0.0 mm 0.00 in0.0 mm 0.00 in0.0 mm
06:25 AM 29.1°F-1.6°C 27.9°F-2.3°C 95% Calm Calm 3.0 mph4.8 kmh 29.71 in1006.1 mb 0.00 in0.0 mm 0.00 in0.0 mm 0.00 in0.0 mm
06:30 AM 29.5°F-1.4°C 28.2°F-2.1°C 95% Calm Calm 3.0 mph4.8 kmh 29.71 in1006.1 mb 0.00 in0.0 mm 0.00 in0.0 mm 0.00 in0.0 mm
06:35 AM 29.5°F-1.4°C 28.2°F-2.1°C 95% Calm Calm 1.0 mph1.6 kmh 29.71 in1006.1 mb 0.00 in0.0 mm 0.00 in0.0 mm 0.00 in0.0 mm
06:40 AM 29.7°F-1.3°C 28.4°F-2.0°C 95% Calm Calm 1.0 mph1.6 kmh 29.71 in1006.1 mb 0.00 in0.0 mm 0.00 in0.0 mm 0.00 in0.0 mm
06:45 AM 29.8°F-1.2°C 28.6°F-1.9°C 95% Calm Calm 1.0 mph1.6 kmh 29.71 in1006.1 mb 0.00 in0.0 mm 0.00 in0.0 mm 0.00 in0.0 mm
06:50 AM 29.8°F-1.2°C 28.6°F-1.9°C 95% Calm Calm 3.0 mph4.8 kmh 29.71 in1006.1 mb 0.00 in0.0 mm 0.00 in0.0 mm 0.00 in0.0 mm
06:55 AM 30.0°F-1.1°C 28.8°F-1.8°C 95% Calm Calm 3.0 mph4.8 kmh 29.71 in1006.1 mb 0.00 in0.0 mm 0.00 in0.0 mm 0.00 in0.0 mm
07:00 AM 30.0°F-1.1°C 28.8°F-1.8°C 95% Calm Calm 2.0 mph3.2 kmh 29.71 in1006.1 mb 0.00 in0.0 mm 0.00 in0.0 mm 0.00 in0.0 mm
07:05 AM 30.0°F-1.1°C 28.8°F-1.8°C 95% Calm Calm 2.0 mph3.2 kmh 29.71 in1006.1 mb 0.00 in0.0 mm 0.00 in0.0 mm 0.00 in0.0 mm
07:10 AM 30.4°F-0.9°C 29.1°F-1.6°C 95% Calm Calm 2.0 mph3.2 kmh 29.72 in1006.4 mb 0.00 in0.0 mm 0.00 in0.0 mm 0.00 in0.0 mm
07:15 AM 30.4°F-0.9°C 29.1°F-1.6°C 95% Calm Calm 2.0 mph3.2 kmh 29.72 in1006.4 mb 0.00 in0.0 mm 0.00 in0.0 mm 0.00 in0.0 mm
07:20 AM 30.4°F-0.9°C 29.1°F-1.6°C 95% Calm Calm 4.0 mph6.4 kmh 29.72 in1006.4 mb 0.00 in0.0 mm 0.00 in0.0 mm 0.00 in0.0 mm
07:25 AM 30.4°F-0.9°C 29.1°F-1.6°C 95% Calm Calm 4.0 mph6.4 kmh 29.72 in1006.4 mb 0.00 in0.0 mm 0.00 in0.0 mm 0.00 in0.0 mm
07:30 AM 30.6°F-0.8°C 29.3°F-1.5°C 95% Calm Calm 3.0 mph4.8 kmh 29.73 in1006.8 mb 0.00 in0.0 mm 0.00 in0.0 mm 0.00 in0.0 mm
07:35 AM 30.6°F-0.8°C 29.3°F-1.5°C 95% Calm Calm 4.0 mph6.4 kmh 29.73 in1006.8 mb 0.00 in0.0 mm 0.00 in0.0 mm 0.00 in0.0 mm
07:40 AM 30.6°F-0.8°C 29.3°F-1.5°C 95% 1.0 mph WSW1.6 kmh WSW 5.0 mph8.0 kmh 29.73 in1006.8 mb 0.00 in0.0 mm 0.00 in0.0 mm 0.00 in0.0 mm
07:45 AM 30.6°F-0.8°C 29.3°F-1.5°C 95% 1.0 mph WSW1.6 kmh WSW 6.0 mph9.7 kmh 29.74 in1007.1 mb 0.00 in0.0 mm 0.00 in0.0 mm 0.00 in0.0 mm
07:50 AM 30.6°F-0.8°C 29.3°F-1.5°C 95% 2.0 mph WSW3.2 kmh WSW 6.0 mph9.7 kmh 29.74 in1007.1 mb 0.00 in0.0 mm 0.00 in0.0 mm 0.00 in0.0 mm
07:55 AM 30.6°F-0.8°C 29.7°F-1.3°C 96% 1.0 mph WSW1.6 kmh WSW 5.0 mph8.0 kmh 29.73 in1006.8 mb 0.00 in0.0 mm 0.00 in0.0 mm 0.00 in0.0 mm
08:00 AM 30.6°F-0.8°C 29.7°F-1.3°C 96% Calm Calm 4.0 mph6.4 kmh 29.73 in1006.8 mb 0.00 in0.0 mm 0.00 in0.0 mm 0.00 in0.0 mm
08:05 AM 30.6°F-0.8°C 29.7°F-1.3°C 96% 1.0 mph SW1.6 kmh SW 3.0 mph4.8 kmh 29.73 in1006.8 mb 0.00 in0.0 mm 0.00 in0.0 mm 0.00 in0.0 mm
08:10 AM 30.6°F-0.8°C 29.7°F-1.3°C 96% 1.0 mph SW1.6 kmh SW 3.0 mph4.8 kmh 29.74 in1007.1 mb 0.00 in0.0 mm 0.00 in0.0 mm 0.00 in0.0 mm
08:15 AM 30.6°F-0.8°C 29.7°F-1.3°C 96% Calm Calm 3.0 mph4.8 kmh 29.74 in1007.1 mb 0.00 in0.0 mm 0.00 in0.0 mm 0.00 in0.0 mm
08:20 AM 30.6°F-0.8°C 29.7°F-1.3°C 96% Calm Calm 3.0 mph4.8 kmh 29.74 in1007.1 mb 0.00 in0.0 mm 0.00 in0.0 mm 0.00 in0.0 mm
08:25 AM 30.6°F-0.8°C 29.7°F-1.3°C 96% Calm Calm 2.0 mph3.2 kmh 29.74 in1007.1 mb 0.00 in0.0 mm 0.00 in0.0 mm 0.00 in0.0 mm
08:30 AM 30.7°F-0.7°C 29.7°F-1.3°C 96% Calm Calm 2.0 mph3.2 kmh 29.74 in1007.1 mb 0.00 in0.0 mm 0.00 in0.0 mm 0.00 in0.0 mm
08:35 AM 30.7°F-0.7°C 29.7°F-1.3°C 96% Calm Calm 2.0 mph3.2 kmh 29.74 in1007.1 mb 0.00 in0.0 mm 0.00 in0.0 mm 0.00 in0.0 mm
08:40 AM 30.7°F-0.7°C 29.8°F-1.2°C 96% Calm Calm 2.0 mph3.2 kmh 29.74 in1007.1 mb 0.00 in0.0 mm 0.00 in0.0 mm 0.00 in0.0 mm
08:45 AM 30.7°F-0.7°C 29.8°F-1.2°C 96% Calm Calm 2.0 mph3.2 kmh 29.74 in1007.1 mb 0.00 in0.0 mm 0.00 in0.0 mm 0.00 in0.0 mm
08:50 AM 30.7°F-0.7°C 29.8°F-1.2°C 96% Calm Calm 1.0 mph1.6 kmh 29.74 in1007.1 mb 0.00 in0.0 mm 0.00 in0.0 mm 0.00 in0.0 mm
08:55 AM 30.9°F-0.6°C 29.8°F-1.2°C 96% Calm Calm 2.0 mph3.2 kmh 29.74 in1007.1 mb 0.00 in0.0 mm 0.00 in0.0 mm 0.00 in0.0 mm
09:00 AM 30.9°F-0.6°C 29.8°F-1.2°C 96% Calm Calm 2.0 mph3.2 kmh 29.74 in1007.1 mb 0.00 in0.0 mm 0.00 in0.0 mm 0.00 in0.0 mm
09:05 AM 30.9°F-0.6°C 30.0°F-1.1°C 96% Calm Calm 3.0 mph4.8 kmh 29.74 in1007.1 mb 0.00 in0.0 mm 0.00 in0.0 mm 0.00 in0.0 mm
09:10 AM 31.1°F-0.5°C 30.0°F-1.1°C 96% 1.0 mph SW1.6 kmh SW 3.0 mph4.8 kmh 29.74 in1007.1 mb 0.00 in0.0 mm 0.00 in0.0 mm 0.00 in0.0 mm
09:15 AM 31.3°F-0.4°C 30.2°F-1.0°C 96% Calm Calm 2.0 mph3.2 kmh 29.74 in1007.1 mb 0.00 in0.0 mm 0.00 in0.0 mm 0.00 in0.0 mm
09:20 AM 31.3°F-0.4°C 30.0°F-1.1°C 95% Calm Calm 1.0 mph1.6 kmh 29.74 in1007.1 mb 0.00 in0.0 mm 0.00 in0.0 mm 0.00 in0.0 mm
09:25 AM 31.5°F-0.3°C 30.2°F-1.0°C 95% Calm Calm 2.0 mph3.2 kmh 29.74 in1007.1 mb 0.00 in0.0 mm 0.00 in0.0 mm 0.00 in0.0 mm
09:30 AM 31.6°F-0.2°C 30.4°F-0.9°C 95% Calm Calm 2.0 mph3.2 kmh 29.74 in1007.1 mb 0.00 in0.0 mm 0.00 in0.0 mm 0.00 in0.0 mm
09:35 AM 31.6°F-0.2°C 30.4°F-0.9°C 95% Calm Calm 1.0 mph1.6 kmh 29.74 in1007.1 mb 0.00 in0.0 mm 0.00 in0.0 mm 0.00 in0.0 mm
09:40 AM 31.8°F-0.1°C 30.6°F-0.8°C 95% Calm Calm 2.0 mph3.2 kmh 29.74 in1007.1 mb 0.00 in0.0 mm 0.00 in0.0 mm 0.00 in0.0 mm
09:45 AM 31.8°F-0.1°C 30.4°F-0.9°C 94% Calm Calm 2.0 mph3.2 kmh 29.74 in1007.1 mb 0.00 in0.0 mm 0.00 in0.0 mm 0.00 in0.0 mm
09:50 AM 32.0°F0.0°C 30.4°F-0.9°C 94% Calm Calm 4.0 mph6.4 kmh 29.74 in1007.1 mb 0.00 in0.0 mm 0.00 in0.0 mm 0.00 in0.0 mm
09:55 AM 32.2°F0.1°C 30.6°F-0.8°C 94% Calm Calm 4.0 mph6.4 kmh 29.74 in1007.1 mb 0.00 in0.0 mm 0.00 in0.0 mm 0.00 in0.0 mm
10:00 AM 32.2°F0.1°C 30.7°F-0.7°C 94% Calm Calm 4.0 mph6.4 kmh 29.74 in1007.1 mb 0.00 in0.0 mm 0.00 in0.0 mm 0.00 in0.0 mm
10:05 AM 32.4°F0.2°C 30.6°F-0.8°C 93% 1.0 mph SW1.6 kmh SW 5.0 mph8.0 kmh 29.74 in1007.1 mb 0.00 in0.0 mm 0.00 in0.0 mm 0.00 in0.0 mm
10:10 AM 32.4°F0.2°C 30.6°F-0.8°C 93% 2.0 mph SW3.2 kmh SW 5.0 mph8.0 kmh 29.74 in1007.1 mb 0.00 in0.0 mm 0.00 in0.0 mm 0.00 in0.0 mm
10:15 AM 32.5°F0.3°C 30.7°F-0.7°C 93% 2.0 mph SW3.2 kmh SW 5.0 mph8.0 kmh 29.74 in1007.1 mb 0.00 in0.0 mm 0.00 in0.0 mm 0.00 in0.0 mm
10:20 AM 32.5°F0.3°C 30.6°F-0.8°C 92% 1.0 mph SW1.6 kmh SW 4.0 mph6.4 kmh 29.74 in1007.1 mb 0.00 in0.0 mm 0.00 in0.0 mm 0.00 in0.0 mm
10:25 AM 32.7°F0.4°C 30.6°F-0.8°C 92% 1.0 mph SW1.6 kmh SW 7.0 mph11.3 kmh 29.74 in1007.1 mb 0.00 in0.0 mm 0.00 in0.0 mm 0.00 in0.0 mm
10:30 AM 32.7°F0.4°C 30.7°F-0.7°C 92% 2.0 mph SW3.2 kmh SW 7.0 mph11.3 kmh 29.73 in1006.8 mb 0.00 in0.0 mm 0.00 in0.0 mm 0.00 in0.0 mm
10:35 AM 32.9°F0.5°C 30.9°F-0.6°C 92% 3.0 mph SW4.8 kmh SW 12.0 mph19.3 kmh 29.73 in1006.8 mb 0.00 in0.0 mm 0.00 in0.0 mm 0.00 in0.0 mm
10:40 AM 33.1°F0.6°C 31.1°F-0.5°C 92% 4.0 mph SW6.4 kmh SW 12.0 mph19.3 kmh 29.72 in1006.4 mb 0.00 in0.0 mm 0.00 in0.0 mm 0.00 in0.0 mm
10:45 AM 33.3°F0.7°C 30.9°F-0.6°C 91% 5.0 mph SW8.0 kmh SW 8.0 mph12.9 kmh 29.72 in1006.4 mb 0.00 in0.0 mm 0.00 in0.0 mm 0.00 in0.0 mm
10:50 AM 33.4°F0.8°C 31.1°F-0.5°C 91% 5.0 mph SW8.0 kmh SW 12.0 mph19.3 kmh 29.72 in1006.4 mb 0.00 in0.0 mm 0.00 in0.0 mm 0.00 in0.0 mm
10:55 AM 33.6°F0.9°C 31.3°F-0.4°C 91% 5.0 mph SW8.0 kmh SW 12.0 mph19.3 kmh 29.71 in1006.1 mb 0.00 in0.0 mm 0.00 in0.0 mm 0.00 in0.0 mm
11:00 AM 34.0°F1.1°C 31.6°F-0.2°C 91% 4.0 mph SW6.4 kmh SW 11.0 mph17.7 kmh 29.71 in1006.1 mb 0.00 in0.0 mm 0.00 in0.0 mm 0.00 in0.0 mm
11:05 AM 34.3°F1.3°C 31.6°F-0.2°C 90% 6.0 mph SW9.7 kmh SW 12.0 mph19.3 kmh 29.71 in1006.1 mb 0.00 in0.0 mm 0.00 in0.0 mm 0.00 in0.0 mm
11:10 AM 34.5°F1.4°C 31.6°F-0.2°C 89% 6.0 mph SW9.7 kmh SW 15.0 mph24.1 kmh 29.71 in1006.1 mb 0.00 in0.0 mm 0.00 in0.0 mm 0.00 in0.0 mm
11:15 AM 34.5°F1.4°C 31.5°F-0.3°C 88% 6.0 mph SW9.7 kmh SW 15.0 mph24.1 kmh 29.70 in1005.8 mb 0.00 in0.0 mm 0.00 in0.0 mm 0.00 in0.0 mm
11:20 AM 34.5°F1.4°C 31.5°F-0.3°C 88% 6.0 mph SW9.7 kmh SW 13.0 mph20.9 kmh 29.70 in1005.8 mb 0.00 in0.0 mm 0.00 in0.0 mm 0.00 in0.0 mm
11:25 AM 34.9°F1.6°C 31.6°F-0.2°C 88% 6.0 mph SW9.7 kmh SW 14.0 mph22.5 kmh 29.69 in1005.4 mb 0.00 in0.0 mm 0.00 in0.0 mm 0.00 in0.0 mm
11:30 AM 34.9°F1.6°C 31.5°F-0.3°C 87% 6.0 mph SW9.7 kmh SW 17.0 mph27.4 kmh 29.69 in1005.4 mb 0.00 in0.0 mm 0.00 in0.0 mm 0.00 in0.0 mm
11:35 AM 35.2°F1.8°C 31.5°F-0.3°C 86% 6.0 mph SW9.7 kmh SW 17.0 mph27.4 kmh 29.69 in1005.4 mb 0.00 in0.0 mm 0.00 in0.0 mm 0.00 in0.0 mm
11:40 AM 35.2°F1.8°C 31.5°F-0.3°C 86% 6.0 mph SW9.7 kmh SW 14.0 mph22.5 kmh 29.69 in1005.4 mb 0.00 in0.0 mm 0.00 in0.0 mm 0.00 in0.0 mm
11:45 AM 35.6°F2.0°C 31.8°F-0.1°C 86% 6.0 mph SW9.7 kmh SW 14.0 mph22.5 kmh 29.68 in1005.1 mb 0.00 in0.0 mm 0.00 in0.0 mm 0.00 in0.0 mm
11:50 AM 35.8°F2.1°C 31.8°F-0.1°C 85% 7.0 mph SW11.3 kmh SW 14.0 mph22.5 kmh 29.68 in1005.1 mb 0.00 in0.0 mm 0.00 in0.0 mm 0.00 in0.0 mm
11:55 AM 36.0°F2.2°C 31.5°F-0.3°C 84% 7.0 mph SW11.3 kmh SW 13.0 mph20.9 kmh 29.68 in1005.1 mb 0.00 in0.0 mm 0.00 in0.0 mm 0.00 in0.0 mm
12:00 PM 36.1°F2.3°C 31.8°F-0.1°C 84% 6.0 mph SW9.7 kmh SW 13.0 mph20.9 kmh 29.68 in1005.1 mb 0.00 in0.0 mm 0.00 in0.0 mm 0.00 in0.0 mm
12:05 PM 36.1°F2.3°C 31.5°F-0.3°C 83% 6.0 mph SW9.7 kmh SW 14.0 mph22.5 kmh 29.67 in1004.7 mb 0.00 in0.0 mm 0.00 in0.0 mm 0.00 in0.0 mm
12:10 PM 36.1°F2.3°C 30.9°F-0.6°C 81% 7.0 mph SW11.3 kmh SW 21.0 mph33.8 kmh 29.66 in1004.4 mb 0.00 in0.0 mm 0.00 in0.0 mm 0.00 in0.0 mm
12:15 PM 36.3°F2.4°C 31.3°F-0.4°C 82% 8.0 mph SW12.9 kmh SW 21.0 mph33.8 kmh 29.66 in1004.4 mb 0.00 in0.0 mm 0.00 in0.0 mm 0.00 in0.0 mm
12:20 PM 36.3°F2.4°C 31.1°F-0.5°C 81% 7.0 mph SW11.3 kmh SW 14.0 mph22.5 kmh 29.66 in1004.4 mb 0.00 in0.0 mm 0.00 in0.0 mm 0.00 in0.0 mm
12:25 PM 36.3°F2.4°C 31.1°F-0.5°C 81% 7.0 mph SW11.3 kmh SW 14.0 mph22.5 kmh 29.65 in1004.1 mb 0.00 in0.0 mm 0.00 in0.0 mm 0.00 in0.0 mm
12:30 PM 36.3°F2.4°C 30.7°F-0.7°C 80% 7.0 mph SW11.3 kmh SW 16.0 mph25.7 kmh 29.64 in1003.7 mb 0.00 in0.0 mm 0.00 in0.0 mm 0.00 in0.0 mm
12:35 PM 36.3°F2.4°C 30.7°F-0.7°C 80% 6.0 mph SW9.7 kmh SW 16.0 mph25.7 kmh 29.64 in1003.7 mb 0.00 in0.0 mm 0.00 in0.0 mm 0.00 in0.0 mm
12:40 PM 36.1°F2.3°C 30.9°F-0.6°C 81% 6.0 mph SW9.7 kmh SW 18.0 mph29.0 kmh 29.63 in1003.4 mb 0.01 in0.3 mm 0.12 in3.0 mm 0.01 in0.3 mm
12:45 PM 36.1°F2.3°C 30.6°F-0.8°C 80% 7.0 mph SW11.3 kmh SW 18.0 mph29.0 kmh 29.62 in1003.0 mb 0.01 in0.3 mm 0.00 in0.0 mm 0.01 in0.3 mm
12:50 PM 36.3°F2.4°C 30.7°F-0.7°C 80% 7.0 mph SW11.3 kmh SW 14.0 mph22.5 kmh 29.62 in1003.0 mb 0.02 in0.5 mm 0.12 in3.0 mm 0.02 in0.5 mm
12:55 PM 36.3°F2.4°C 30.7°F-0.7°C 80% 8.0 mph SW12.9 kmh SW 17.0 mph27.4 kmh 29.61 in1002.7 mb 0.02 in0.5 mm 0.00 in0.0 mm 0.02 in0.5 mm
01:00 PM 36.3°F2.4°C 30.7°F-0.7°C 80% 7.0 mph SW11.3 kmh SW 17.0 mph27.4 kmh 29.61 in1002.7 mb 0.02 in0.5 mm 0.00 in0.0 mm 0.02 in0.5 mm
01:05 PM 36.5°F2.5°C 30.6°F-0.8°C 79% 6.0 mph SW9.7 kmh SW 14.0 mph22.5 kmh 29.60 in1002.4 mb 0.02 in0.5 mm 0.00 in0.0 mm 0.02 in0.5 mm
01:10 PM 36.7°F2.6°C 30.7°F-0.7°C 79% 6.0 mph SW9.7 kmh SW 14.0 mph22.5 kmh 29.60 in1002.4 mb 0.02 in0.5 mm 0.00 in0.0 mm 0.02 in0.5 mm
01:15 PM 36.7°F2.6°C 30.6°F-0.8°C 78% 6.0 mph SW9.7 kmh SW 17.0 mph27.4 kmh 29.60 in1002.4 mb 0.02 in0.5 mm 0.00 in0.0 mm 0.02 in0.5 mm
01:20 PM 36.7°F2.6°C 30.6°F-0.8°C 78% 7.0 mph SW11.3 kmh SW 17.0 mph27.4 kmh 29.59 in1002.0 mb 0.03 in0.8 mm 0.12 in3.0 mm 0.03 in0.8 mm
01:25 PM 36.7°F2.6°C 30.4°F-0.9°C 78% 7.0 mph SW11.3 kmh SW 14.0 mph22.5 kmh 29.59 in1002.0 mb 0.03 in0.8 mm 0.00 in0.0 mm 0.03 in0.8 mm
01:30 PM 36.7°F2.6°C 30.6°F-0.8°C 78% 7.0 mph SW11.3 kmh SW 13.0 mph20.9 kmh 29.58 in1001.7 mb 0.03 in0.8 mm 0.00 in0.0 mm 0.03 in0.8 mm
01:35 PM 37.0°F2.8°C 30.9°F-0.6°C 78% 6.0 mph SW9.7 kmh SW 10.0 mph16.1 kmh 29.58 in1001.7 mb 0.04 in1.0 mm 0.12 in3.0 mm 0.04 in1.0 mm
01:40 PM 37.8°F3.2°C 31.3°F-0.4°C 77% 5.0 mph SSW8.0 kmh SSW 10.0 mph16.1 kmh 29.57 in1001.4 mb 0.03 in0.8 mm 0.00 in0.0 mm 0.04 in1.0 mm
01:45 PM 37.9°F3.3°C 31.1°F-0.5°C 76% 5.0 mph SSW8.0 kmh SSW 11.0 mph17.7 kmh 29.57 in1001.4 mb 0.03 in0.8 mm 0.00 in0.0 mm 0.04 in1.0 mm
01:50 PM 37.6°F3.1°C 30.4°F-0.9°C 75% 7.0 mph SSW11.3 kmh SSW 14.0 mph22.5 kmh 29.56 in1001.0 mb 0.02 in0.5 mm 0.00 in0.0 mm 0.04 in1.0 mm
01:55 PM 37.2°F2.9°C 30.0°F-1.1°C 75% 8.0 mph SSW12.9 kmh SSW 17.0 mph27.4 kmh 29.55 in1000.7 mb 0.03 in0.8 mm 0.12 in3.0 mm 0.05 in1.3 mm
02:00 PM 36.9°F2.7°C 30.0°F-1.1°C 76% 7.0 mph SSW11.3 kmh SSW 17.0 mph27.4 kmh 29.55 in1000.7 mb 0.03 in0.8 mm 0.00 in0.0 mm 0.05 in1.3 mm
02:05 PM 36.7°F2.6°C 29.8°F-1.2°C 76% 7.0 mph SSW11.3 kmh SSW 17.0 mph27.4 kmh 29.55 in1000.7 mb 0.02 in0.5 mm 0.00 in0.0 mm 0.05 in1.3 mm
02:10 PM 36.7°F2.6°C 29.8°F-1.2°C 76% 8.0 mph SW12.9 kmh SW 22.0 mph35.4 kmh 29.55 in1000.7 mb 0.02 in0.5 mm 0.00 in0.0 mm 0.05 in1.3 mm
02:15 PM 36.7°F2.6°C 29.8°F-1.2°C 76% 7.0 mph SSW11.3 kmh SSW 22.0 mph35.4 kmh 29.55 in1000.7 mb 0.02 in0.5 mm 0.00 in0.0 mm 0.05 in1.3 mm
02:20 PM 36.7°F2.6°C 30.2°F-1.0°C 77% 6.0 mph SSW9.7 kmh SSW 14.0 mph22.5 kmh 29.54 in1000.3 mb 0.02 in0.5 mm 0.00 in0.0 mm 0.05 in1.3 mm
02:25 PM 36.7°F2.6°C 30.0°F-1.1°C 77% 6.0 mph SSW9.7 kmh SSW 12.0 mph19.3 kmh 29.54 in1000.3 mb 0.02 in0.5 mm 0.00 in0.0 mm 0.06 in1.5 mm
02:30 PM 36.7°F2.6°C 29.7°F-1.3°C 76% 6.0 mph S9.7 kmh S 16.0 mph25.7 kmh 29.53 in1000.0 mb 0.02 in0.5 mm 0.00 in0.0 mm 0.06 in1.5 mm
02:35 PM 36.7°F2.6°C 29.5°F-1.4°C 75% 8.0 mph SSW12.9 kmh SSW 17.0 mph27.4 kmh 29.53 in1000.0 mb 0.02 in0.5 mm 0.00 in0.0 mm 0.06 in1.5 mm
02:40 PM 36.3°F2.4°C 29.3°F-1.5°C 75% 7.0 mph SSW11.3 kmh SSW 17.0 mph27.4 kmh 29.52 in999.7 mb 0.02 in0.5 mm 0.00 in0.0 mm 0.06 in1.5 mm
02:45 PM 36.3°F2.4°C 29.3°F-1.5°C 75% 7.0 mph SSW11.3 kmh SSW 14.0 mph22.5 kmh 29.52 in999.7 mb 0.02 in0.5 mm 0.00 in0.0 mm 0.06 in1.5 mm
02:50 PM 36.3°F2.4°C 29.1°F-1.6°C 75% 8.0 mph SSW12.9 kmh SSW 14.0 mph22.5 kmh 29.51 in999.3 mb 0.02 in0.5 mm 0.00 in0.0 mm 0.06 in1.5 mm
02:55 PM 36.3°F2.4°C 29.1°F-1.6°C 75% 8.0 mph S12.9 kmh S 13.0 mph20.9 kmh 29.50 in999.0 mb 0.01 in0.3 mm 0.00 in0.0 mm 0.06 in1.5 mm
03:00 PM 36.3°F2.4°C 29.1°F-1.6°C 75% 8.0 mph S12.9 kmh S 15.0 mph24.1 kmh 29.49 in998.6 mb 0.01 in0.3 mm 0.00 in0.0 mm 0.06 in1.5 mm
03:05 PM 36.1°F2.3°C 29.1°F-1.6°C 75% 8.0 mph SSW12.9 kmh SSW 20.0 mph32.2 kmh 29.49 in998.6 mb 0.01 in0.3 mm 0.00 in0.0 mm 0.06 in1.5 mm
03:10 PM 36.3°F2.4°C 28.8°F-1.8°C 74% 8.0 mph S12.9 kmh S 20.0 mph32.2 kmh 29.49 in998.6 mb 0.01 in0.3 mm 0.00 in0.0 mm 0.06 in1.5 mm
03:15 PM 36.3°F2.4°C 28.8°F-1.8°C 74% 9.0 mph SSW14.5 kmh SSW 18.0 mph29.0 kmh 29.48 in998.3 mb 0.01 in0.3 mm 0.00 in0.0 mm 0.06 in1.5 mm
03:20 PM 36.3°F2.4°C 28.8°F-1.8°C 74% 7.0 mph SSW11.3 kmh SSW 17.0 mph27.4 kmh 29.48 in998.3 mb 0.02 in0.5 mm 0.12 in3.0 mm 0.06 in1.5 mm
03:25 PM 36.3°F2.4°C 28.9°F-1.7°C 74% 7.0 mph SSW11.3 kmh SSW 23.0 mph37.0 kmh 29.47 in998.0 mb 0.01 in0.3 mm 0.00 in0.0 mm 0.06 in1.5 mm
03:30 PM 36.5°F2.5°C 28.6°F-1.9°C 73% 9.0 mph SSW14.5 kmh SSW 23.0 mph37.0 kmh 29.47 in998.0 mb 0.01 in0.3 mm 0.00 in0.0 mm 0.06 in1.5 mm
03:35 PM 36.5°F2.5°C 28.9°F-1.7°C 74% 9.0 mph SW14.5 kmh SW 21.0 mph33.8 kmh 29.47 in998.0 mb 0.01 in0.3 mm 0.00 in0.0 mm 0.06 in1.5 mm
03:40 PM 36.0°F2.2°C 30.4°F-0.9°C 80% 10.0 mph SW16.1 kmh SW 24.0 mph38.6 kmh 29.47 in998.0 mb 0.01 in0.3 mm 0.00 in0.0 mm 0.06 in1.5 mm
03:45 PM 35.2°F1.8°C 30.6°F-0.8°C 83% 12.0 mph SW19.3 kmh SW 24.0 mph38.6 kmh 29.46 in997.6 mb 0.01 in0.3 mm 0.00 in0.0 mm 0.06 in1.5 mm
03:50 PM 35.1°F1.7°C 30.7°F-0.7°C 84% 12.0 mph SW19.3 kmh SW 22.0 mph35.4 kmh 29.46 in997.6 mb 0.01 in0.3 mm 0.00 in0.0 mm 0.06 in1.5 mm
03:55 PM 35.2°F1.8°C 30.6°F-0.8°C 83% 11.0 mph SW17.7 kmh SW 23.0 mph37.0 kmh 29.45 in997.3 mb 0.01 in0.3 mm 0.00 in0.0 mm 0.06 in1.5 mm
04:00 PM 35.1°F1.7°C 30.4°F-0.9°C 83% 10.0 mph SW16.1 kmh SW 23.0 mph37.0 kmh 29.45 in997.3 mb 0.01 in0.3 mm 0.00 in0.0 mm 0.06 in1.5 mm
04:05 PM 34.9°F1.6°C 30.7°F-0.7°C 85% 8.0 mph SW12.9 kmh SW 20.0 mph32.2 kmh 29.45 in997.3 mb 0.01 in0.3 mm 0.00 in0.0 mm 0.06 in1.5 mm
04:10 PM 34.7°F1.5°C 30.9°F-0.6°C 86% 8.0 mph SW12.9 kmh SW 15.0 mph24.1 kmh 29.44 in997.0 mb 0.01 in0.3 mm 0.00 in0.0 mm 0.06 in1.5 mm
04:15 PM 34.7°F1.5°C 31.3°F-0.4°C 87% 7.0 mph SW11.3 kmh SW 16.0 mph25.7 kmh 29.43 in996.6 mb 0.01 in0.3 mm 0.00 in0.0 mm 0.06 in1.5 mm
04:20 PM 34.9°F1.6°C 31.1°F-0.5°C 86% 7.0 mph SW11.3 kmh SW 17.0 mph27.4 kmh 29.43 in996.6 mb 0.00 in0.0 mm 0.00 in0.0 mm 0.06 in1.5 mm
04:25 PM 35.2°F1.8°C 30.9°F-0.6°C 84% 8.0 mph SSW12.9 kmh SSW 17.0 mph27.4 kmh 29.42 in996.3 mb 0.00 in0.0 mm 0.00 in0.0 mm 0.06 in1.5 mm
04:30 PM 35.6°F2.0°C 30.9°F-0.6°C 83% 8.0 mph SW12.9 kmh SW 17.0 mph27.4 kmh 29.41 in995.9 mb 0.00 in0.0 mm 0.00 in0.0 mm 0.06 in1.5 mm
04:35 PM 36.0°F2.2°C 31.1°F-0.5°C 82% 8.0 mph SW12.9 kmh SW 18.0 mph29.0 kmh 29.41 in995.9 mb 0.00 in0.0 mm 0.00 in0.0 mm 0.06 in1.5 mm
04:40 PM 36.1°F2.3°C 30.9°F-0.6°C 81% 8.0 mph SW12.9 kmh SW 18.0 mph29.0 kmh 29.41 in995.9 mb 0.00 in0.0 mm 0.00 in0.0 mm 0.06 in1.5 mm
04:45 PM 36.3°F2.4°C 30.7°F-0.7°C 80% 7.0 mph SW11.3 kmh SW 17.0 mph27.4 kmh 29.41 in995.9 mb 0.00 in0.0 mm 0.00 in0.0 mm 0.06 in1.5 mm
04:50 PM 36.5°F2.5°C 30.9°F-0.6°C 80% 7.0 mph SW11.3 kmh SW 17.0 mph27.4 kmh 29.40 in995.6 mb 0.00 in0.0 mm 0.00 in0.0 mm 0.06 in1.5 mm
04:55 PM 36.7°F2.6°C 31.1°F-0.5°C 80% 6.0 mph SW9.7 kmh SW 13.0 mph20.9 kmh 29.39 in995.3 mb 0.00 in0.0 mm 0.00 in0.0 mm 0.06 in1.5 mm
05:00 PM 36.9°F2.7°C 30.9°F-0.6°C 79% 8.0 mph SW12.9 kmh SW 22.0 mph35.4 kmh 29.38 in994.9 mb 0.00 in0.0 mm 0.00 in0.0 mm 0.06 in1.5 mm
05:05 PM 36.9°F2.7°C 30.9°F-0.6°C 79% 8.0 mph SW12.9 kmh SW 22.0 mph35.4 kmh 29.38 in994.9 mb 0.01 in0.3 mm 0.12 in3.0 mm 0.07 in1.8 mm
05:10 PM 36.9°F2.7°C 30.9°F-0.6°C 79% 7.0 mph SW11.3 kmh SW 17.0 mph27.4 kmh 29.38 in994.9 mb 0.01 in0.3 mm 0.00 in0.0 mm 0.07 in1.8 mm
05:15 PM 36.9°F2.7°C 31.3°F-0.4°C 80% 7.0 mph SW11.3 kmh SW 15.0 mph24.1 kmh 29.38 in994.9 mb 0.01 in0.3 mm 0.00 in0.0 mm 0.07 in1.8 mm
05:20 PM 36.9°F2.7°C 31.3°F-0.4°C 80% 7.0 mph SW11.3 kmh SW 15.0 mph24.1 kmh 29.38 in994.9 mb 0.01 in0.3 mm 0.00 in0.0 mm 0.07 in1.8 mm
05:25 PM 36.9°F2.7°C 31.3°F-0.4°C 80% 7.0 mph SW11.3 kmh SW 14.0 mph22.5 kmh 29.37 in994.6 mb 0.01 in0.3 mm 0.00 in0.0 mm 0.07 in1.8 mm
05:30 PM 36.9°F2.7°C 31.3°F-0.4°C 80% 6.0 mph SW9.7 kmh SW 14.0 mph22.5 kmh 29.37 in994.6 mb 0.01 in0.3 mm 0.00 in0.0 mm 0.07 in1.8 mm
05:35 PM 36.9°F2.7°C 31.6°F-0.2°C 81% 6.0 mph SW9.7 kmh SW 11.0 mph17.7 kmh 29.37 in994.6 mb 0.01 in0.3 mm 0.00 in0.0 mm 0.07 in1.8 mm
05:40 PM 37.0°F2.8°C 32.2°F0.1°C 82% 7.0 mph SW11.3 kmh SW 18.0 mph29.0 kmh 29.36 in994.2 mb 0.01 in0.3 mm 0.00 in0.0 mm 0.07 in1.8 mm
05:45 PM 37.0°F2.8°C 32.4°F0.2°C 83% 8.0 mph SW12.9 kmh SW 20.0 mph32.2 kmh 29.36 in994.2 mb 0.01 in0.3 mm 0.00 in0.0 mm 0.07 in1.8 mm
05:50 PM 36.9°F2.7°C 32.5°F0.3°C 84% 9.0 mph SW14.5 kmh SW 20.0 mph32.2 kmh 29.36 in994.2 mb 0.02 in0.5 mm 0.12 in3.0 mm 0.08 in2.0 mm
05:55 PM 36.3°F2.4°C 32.5°F0.3°C 86% 11.0 mph SW17.7 kmh SW 19.0 mph30.6 kmh 29.37 in994.6 mb 0.02 in0.5 mm 0.00 in0.0 mm 0.08 in2.0 mm
06:00 PM 36.1°F2.3°C 32.9°F0.5°C 88% 10.0 mph SW16.1 kmh SW 19.0 mph30.6 kmh 29.36 in994.2 mb 0.02 in0.5 mm 0.00 in0.0 mm 0.08 in2.0 mm
06:05 PM 36.1°F2.3°C 33.3°F0.7°C 89% 8.0 mph SW12.9 kmh SW 15.0 mph24.1 kmh 29.36 in994.2 mb 0.01 in0.3 mm 0.00 in0.0 mm 0.08 in2.0 mm
06:10 PM 36.3°F2.4°C 33.4°F0.8°C 89% 7.0 mph SW11.3 kmh SW 14.0 mph22.5 kmh 29.35 in993.9 mb 0.01 in0.3 mm 0.00 in0.0 mm 0.08 in2.0 mm
06:15 PM 36.7°F2.6°C 33.6°F0.9°C 89% 7.0 mph SW11.3 kmh SW 14.0 mph22.5 kmh 29.35 in993.9 mb 0.01 in0.3 mm 0.00 in0.0 mm 0.08 in2.0 mm
06:20 PM 36.9°F2.7°C 33.6°F0.9°C 88% 8.0 mph SW12.9 kmh SW 15.0 mph24.1 kmh 29.34 in993.6 mb 0.01 in0.3 mm 0.00 in0.0 mm 0.08 in2.0 mm
06:25 PM 36.9°F2.7°C 33.4°F0.8°C 87% 8.0 mph SW12.9 kmh SW 15.0 mph24.1 kmh 29.34 in993.6 mb 0.01 in0.3 mm 0.00 in0.0 mm 0.08 in2.0 mm
06:30 PM 36.9°F2.7°C 33.4°F0.8°C 87% 7.0 mph SW11.3 kmh SW 13.0 mph20.9 kmh 29.34 in993.6 mb 0.01 in0.3 mm 0.00 in0.0 mm 0.08 in2.0 mm
06:35 PM 36.9°F2.7°C 33.4°F0.8°C 87% 6.0 mph SW9.7 kmh SW 17.0 mph27.4 kmh 29.34 in993.6 mb 0.02 in0.5 mm 0.12 in3.0 mm 0.09 in2.3 mm
06:40 PM 37.0°F2.8°C 33.4°F0.8°C 87% 7.0 mph SW11.3 kmh SW 17.0 mph27.4 kmh 29.33 in993.2 mb 0.02 in0.5 mm 0.00 in0.0 mm 0.09 in2.3 mm
06:45 PM 37.0°F2.8°C 33.6°F0.9°C 87% 8.0 mph SW12.9 kmh SW 19.0 mph30.6 kmh 29.33 in993.2 mb 0.02 in0.5 mm 0.00 in0.0 mm 0.09 in2.3 mm
06:50 PM 37.6°F3.1°C 34.3°F1.3°C 88% 9.0 mph SW14.5 kmh SW 20.0 mph32.2 kmh 29.33 in993.2 mb 0.01 in0.3 mm 0.00 in0.0 mm 0.09 in2.3 mm
06:55 PM 37.9°F3.3°C 34.7°F1.5°C 88% 10.0 mph SW16.1 kmh SW 20.0 mph32.2 kmh 29.33 in993.2 mb 0.01 in0.3 mm 0.00 in0.0 mm 0.09 in2.3 mm
07:00 PM 38.3°F3.5°C 35.1°F1.7°C 88% 12.0 mph SW19.3 kmh SW 24.0 mph38.6 kmh 29.33 in993.2 mb 0.01 in0.3 mm 0.00 in0.0 mm 0.09 in2.3 mm
07:05 PM 38.7°F3.7°C 35.4°F1.9°C 88% 13.0 mph SW20.9 kmh SW 29.0 mph46.7 kmh 29.32 in992.9 mb 0.01 in0.3 mm 0.00 in0.0 mm 0.09 in2.3 mm
07:10 PM 38.8°F3.8°C 35.4°F1.9°C 87% 14.0 mph SW22.5 kmh SW 29.0 mph46.7 kmh 29.32 in992.9 mb 0.01 in0.3 mm 0.00 in0.0 mm 0.09 in2.3 mm
07:15 PM 39.0°F3.9°C 35.4°F1.9°C 87% 13.0 mph SW20.9 kmh SW 26.0 mph41.8 kmh 29.32 in992.9 mb 0.01 in0.3 mm 0.00 in0.0 mm 0.09 in2.3 mm
07:20 PM 39.0°F3.9°C 35.4°F1.9°C 87% 12.0 mph SW19.3 kmh SW 23.0 mph37.0 kmh 29.32 in992.9 mb 0.01 in0.3 mm 0.00 in0.0 mm 0.09 in2.3 mm
07:25 PM 39.0°F3.9°C 35.8°F2.1°C 88% 12.0 mph SW19.3 kmh SW 26.0 mph41.8 kmh 29.32 in992.9 mb 0.01 in0.3 mm 0.00 in0.0 mm 0.09 in2.3 mm
07:30 PM 38.8°F3.8°C 35.6°F2.0°C 88% 13.0 mph SW20.9 kmh SW 26.0 mph41.8 kmh 29.31 in992.6 mb 0.01 in0.3 mm 0.00 in0.0 mm 0.09 in2.3 mm
07:35 PM 38.7°F3.7°C 35.4°F1.9°C 88% 13.0 mph SW20.9 kmh SW 23.0 mph37.0 kmh 29.31 in992.6 mb 0.00 in0.0 mm 0.00 in0.0 mm 0.09 in2.3 mm
07:40 PM 38.7°F3.7°C 35.4°F1.9°C 88% 12.0 mph SW19.3 kmh SW 25.0 mph40.2 kmh 29.32 in992.9 mb 0.00 in0.0 mm 0.00 in0.0 mm 0.09 in2.3 mm
07:45 PM 38.8°F3.8°C 35.4°F1.9°C 87% 12.0 mph SW19.3 kmh SW 25.0 mph40.2 kmh 29.31 in992.6 mb 0.00 in0.0 mm 0.00 in0.0 mm 0.09 in2.3 mm
07:50 PM 39.2°F4.0°C 35.4°F1.9°C 86% 13.0 mph SW20.9 kmh SW 26.0 mph41.8 kmh 29.31 in992.6 mb 0.00 in0.0 mm 0.00 in0.0 mm 0.09 in2.3 mm
07:55 PM 39.2°F4.0°C 35.4°F1.9°C 86% 13.0 mph SW20.9 kmh SW 26.0 mph41.8 kmh 29.31 in992.6 mb 0.00 in0.0 mm 0.00 in0.0 mm 0.09 in2.3 mm
08:00 PM 39.4°F4.1°C 35.2°F1.8°C 85% 12.0 mph SW19.3 kmh SW 22.0 mph35.4 kmh 29.31 in992.6 mb 0.00 in0.0 mm 0.00 in0.0 mm 0.09 in2.3 mm
08:05 PM 39.6°F4.2°C 35.1°F1.7°C 84% 13.0 mph SW20.9 kmh SW 26.0 mph41.8 kmh 29.31 in992.6 mb 0.00 in0.0 mm 0.00 in0.0 mm 0.09 in2.3 mm
08:10 PM 39.7°F4.3°C 34.9°F1.6°C 83% 13.0 mph SW20.9 kmh SW 37.0 mph59.5 kmh 29.31 in992.6 mb 0.00 in0.0 mm 0.00 in0.0 mm 0.09 in2.3 mm
08:15 PM 40.1°F4.5°C 35.1°F1.7°C 82% 14.0 mph SW22.5 kmh SW 37.0 mph59.5 kmh 29.31 in992.6 mb 0.00 in0.0 mm 0.00 in0.0 mm 0.09 in2.3 mm
08:20 PM 40.5°F4.7°C 35.1°F1.7°C 81% 14.0 mph SW22.5 kmh SW 28.0 mph45.1 kmh 29.31 in992.6 mb 0.00 in0.0 mm 0.00 in0.0 mm 0.09 in2.3 mm
08:25 PM 40.6°F4.8°C 35.1°F1.7°C 80% 15.0 mph SW24.1 kmh SW 32.0 mph51.5 kmh 29.31 in992.6 mb 0.00 in0.0 mm 0.00 in0.0 mm 0.09 in2.3 mm
08:30 PM 40.6°F4.8°C 35.1°F1.7°C 80% 14.0 mph SW22.5 kmh SW 32.0 mph51.5 kmh 29.31 in992.6 mb 0.00 in0.0 mm 0.00 in0.0 mm 0.09 in2.3 mm
08:35 PM 40.8°F4.9°C 35.2°F1.8°C 80% 13.0 mph SW20.9 kmh SW 31.0 mph49.9 kmh 29.31 in992.6 mb 0.00 in0.0 mm 0.00 in0.0 mm 0.09 in2.3 mm
08:40 PM 40.6°F4.8°C 35.6°F2.0°C 82% 16.0 mph SW25.7 kmh SW 32.0 mph51.5 kmh 29.31 in992.6 mb 0.00 in0.0 mm 0.00 in0.0 mm 0.09 in2.3 mm
08:45 PM 40.5°F4.7°C 35.4°F1.9°C 82% 15.0 mph SW24.1 kmh SW 32.0 mph51.5 kmh 29.31 in992.6 mb 0.00 in0.0 mm 0.00 in0.0 mm 0.09 in2.3 mm
08:50 PM 40.6°F4.8°C 35.2°F1.8°C 81% 14.0 mph SW22.5 kmh SW 28.0 mph45.1 kmh 29.31 in992.6 mb 0.00 in0.0 mm 0.00 in0.0 mm 0.09 in2.3 mm
08:55 PM 40.6°F4.8°C 35.6°F2.0°C 82% 15.0 mph SW24.1 kmh SW 29.0 mph46.7 kmh 29.31 in992.6 mb 0.00 in0.0 mm 0.00 in0.0 mm 0.09 in2.3 mm
09:00 PM 40.6°F4.8°C 35.2°F1.8°C 81% 14.0 mph SW22.5 kmh SW 29.0 mph46.7 kmh 29.31 in992.6 mb 0.00 in0.0 mm 0.00 in0.0 mm 0.09 in2.3 mm
09:05 PM 40.6°F4.8°C 35.2°F1.8°C 81% 14.0 mph SW22.5 kmh SW 26.0 mph41.8 kmh 29.31 in992.6 mb 0.00 in0.0 mm 0.00 in0.0 mm 0.09 in2.3 mm
09:10 PM 40.6°F4.8°C 35.2°F1.8°C 81% 14.0 mph SW22.5 kmh SW 27.0 mph43.5 kmh 29.31 in992.6 mb 0.00 in0.0 mm 0.00 in0.0 mm 0.09 in2.3 mm
09:15 PM 40.5°F4.7°C 35.1°F1.7°C 81% 13.0 mph SW20.9 kmh SW 27.0 mph43.5 kmh 29.31 in992.6 mb 0.00 in0.0 mm 0.00 in0.0 mm 0.09 in2.3 mm
09:20 PM 40.6°F4.8°C 35.1°F1.7°C 80% 13.0 mph SW20.9 kmh SW 22.0 mph35.4 kmh 29.32 in992.9 mb 0.00 in0.0 mm 0.00 in0.0 mm 0.09 in2.3 mm
09:25 PM 40.8°F4.9°C 34.9°F1.6°C 79% 13.0 mph SW20.9 kmh SW 25.0 mph40.2 kmh 29.32 in992.9 mb 0.00 in0.0 mm 0.00 in0.0 mm 0.09 in2.3 mm
09:30 PM 40.8°F4.9°C 34.5°F1.4°C 78% 12.0 mph SW19.3 kmh SW 25.0 mph40.2 kmh 29.32 in992.9 mb 0.00 in0.0 mm 0.00 in0.0 mm 0.09 in2.3 mm
09:35 PM 41.2°F5.1°C 34.5°F1.4°C 77% 12.0 mph SW19.3 kmh SW 24.0 mph38.6 kmh 29.32 in992.9 mb 0.00 in0.0 mm 0.00 in0.0 mm 0.09 in2.3 mm
09:40 PM 41.2°F5.1°C 34.2°F1.2°C 76% 11.0 mph SW17.7 kmh SW 24.0 mph38.6 kmh 29.33 in993.2 mb 0.00 in0.0 mm 0.00 in0.0 mm 0.09 in2.3 mm
09:45 PM 40.8°F4.9°C 34.2°F1.2°C 77% 9.0 mph SW14.5 kmh SW 22.0 mph35.4 kmh 29.32 in992.9 mb 0.00 in0.0 mm 0.00 in0.0 mm 0.09 in2.3 mm
09:50 PM 41.0°F5.0°C 34.3°F1.3°C 77% 8.0 mph SW12.9 kmh SW 22.0 mph35.4 kmh 29.33 in993.2 mb 0.00 in0.0 mm 0.00 in0.0 mm 0.09 in2.3 mm
09:55 PM 41.0°F5.0°C 34.0°F1.1°C 76% 9.0 mph SW14.5 kmh SW 24.0 mph38.6 kmh 29.33 in993.2 mb 0.00 in0.0 mm 0.00 in0.0 mm 0.09 in2.3 mm
10:00 PM 41.0°F5.0°C 34.0°F1.1°C 76% 11.0 mph SW17.7 kmh SW 24.0 mph38.6 kmh 29.33 in993.2 mb 0.00 in0.0 mm 0.00 in0.0 mm 0.09 in2.3 mm
10:05 PM 41.0°F5.0°C 33.3°F0.7°C 74% 10.0 mph WSW16.1 kmh WSW 22.0 mph35.4 kmh 29.33 in993.2 mb 0.00 in0.0 mm 0.00 in0.0 mm 0.09 in2.3 mm
10:10 PM 41.2°F5.1°C 33.1°F0.6°C 73% 9.0 mph SW14.5 kmh SW 18.0 mph29.0 kmh 29.33 in993.2 mb 0.00 in0.0 mm 0.00 in0.0 mm 0.09 in2.3 mm
10:15 PM 41.2°F5.1°C 33.3°F0.7°C 73% 9.0 mph SW14.5 kmh SW 20.0 mph32.2 kmh 29.34 in993.6 mb 0.00 in0.0 mm 0.00 in0.0 mm 0.09 in2.3 mm
10:20 PM 41.2°F5.1°C 33.1°F0.6°C 73% 9.0 mph SW14.5 kmh SW 20.0 mph32.2 kmh 29.34 in993.6 mb 0.00 in0.0 mm 0.00 in0.0 mm 0.09 in2.3 mm
10:25 PM 40.8°F4.9°C 33.3°F0.7°C 74% 8.0 mph SW12.9 kmh SW 18.0 mph29.0 kmh 29.34 in993.6 mb 0.00 in0.0 mm 0.00 in0.0 mm 0.09 in2.3 mm
10:30 PM 40.8°F4.9°C 33.1°F0.6°C 74% 7.0 mph SW11.3 kmh SW 18.0 mph29.0 kmh 29.34 in993.6 mb 0.00 in0.0 mm 0.00 in0.0 mm 0.09 in2.3 mm
10:35 PM 40.6°F4.8°C 33.4°F0.8°C 75% 7.0 mph WSW11.3 kmh WSW 18.0 mph29.0 kmh 29.34 in993.6 mb 0.00 in0.0 mm 0.00 in0.0 mm 0.09 in2.3 mm
10:40 PM 40.6°F4.8°C 33.1°F0.6°C 74% 7.0 mph WSW11.3 kmh WSW 18.0 mph29.0 kmh 29.34 in993.6 mb 0.00 in0.0 mm 0.00 in0.0 mm 0.09 in2.3 mm
10:45 PM 40.6°F4.8°C 33.1°F0.6°C 74% 7.0 mph WSW11.3 kmh WSW 19.0 mph30.6 kmh 29.35 in993.9 mb 0.00 in0.0 mm 0.00 in0.0 mm 0.09 in2.3 mm
10:50 PM 40.6°F4.8°C 33.1°F0.6°C 74% 8.0 mph WSW12.9 kmh WSW 21.0 mph33.8 kmh 29.35 in993.9 mb 0.00 in0.0 mm 0.00 in0.0 mm 0.09 in2.3 mm
10:55 PM 40.6°F4.8°C 33.1°F0.6°C 74% 8.0 mph WSW12.9 kmh WSW 21.0 mph33.8 kmh 29.35 in993.9 mb 0.00 in0.0 mm 0.00 in0.0 mm 0.09 in2.3 mm
11:00 PM 40.6°F4.8°C 32.5°F0.3°C 73% 8.0 mph WSW12.9 kmh WSW 23.0 mph37.0 kmh 29.34 in993.6 mb 0.00 in0.0 mm 0.00 in0.0 mm 0.09 in2.3 mm
11:05 PM 40.6°F4.8°C 32.4°F0.2°C 72% 7.0 mph WSW11.3 kmh WSW 23.0 mph37.0 kmh 29.35 in993.9 mb 0.00 in0.0 mm 0.00 in0.0 mm 0.09 in2.3 mm
11:10 PM 40.6°F4.8°C 31.6°F-0.2°C 70% 8.0 mph WSW12.9 kmh WSW 16.0 mph25.7 kmh 29.35 in993.9 mb 0.00 in0.0 mm 0.00 in0.0 mm 0.09 in2.3 mm
11:15 PM 40.6°F4.8°C 31.3°F-0.4°C 69% 7.0 mph WSW11.3 kmh WSW 17.0 mph27.4 kmh 29.35 in993.9 mb 0.00 in0.0 mm 0.00 in0.0 mm 0.09 in2.3 mm
11:20 PM 40.5°F4.7°C 31.1°F-0.5°C 69% 6.0 mph WSW9.7 kmh WSW 17.0 mph27.4 kmh 29.35 in993.9 mb 0.00 in0.0 mm 0.00 in0.0 mm 0.09 in2.3 mm
11:25 PM 40.5°F4.7°C 31.5°F-0.3°C 70% 6.0 mph WSW9.7 kmh WSW 15.0 mph24.1 kmh 29.36 in994.2 mb 0.00 in0.0 mm 0.00 in0.0 mm 0.09 in2.3 mm
11:30 PM 40.5°F4.7°C 31.1°F-0.5°C 69% 5.0 mph WSW8.0 kmh WSW 19.0 mph30.6 kmh 29.36 in994.2 mb 0.00 in0.0 mm 0.00 in0.0 mm 0.09 in2.3 mm
11:35 PM 40.5°F4.7°C 30.7°F-0.7°C 68% 6.0 mph WSW9.7 kmh WSW 19.0 mph30.6 kmh 29.37 in994.6 mb 0.00 in0.0 mm 0.00 in0.0 mm 0.09 in2.3 mm
11:40 PM 40.6°F4.8°C 30.2°F-1.0°C 66% 7.0 mph WSW11.3 kmh WSW 18.0 mph29.0 kmh 29.36 in994.2 mb 0.00 in0.0 mm 0.00 in0.0 mm 0.09 in2.3 mm
11:45 PM 40.6°F4.8°C 30.2°F-1.0°C 66% 6.0 mph WSW9.7 kmh WSW 16.0 mph25.7 kmh 29.37 in994.6 mb 0.00 in0.0 mm 0.00 in0.0 mm 0.09 in2.3 mm
11:50 PM 40.6°F4.8°C 30.2°F-1.0°C 66% 5.0 mph WSW8.0 kmh WSW 18.0 mph29.0 kmh 29.37 in994.6 mb 0.00 in0.0 mm 0.00 in0.0 mm 0.09 in2.3 mm
11:55 PM 40.6°F4.8°C 29.7°F-1.3°C 65% 5.0 mph WSW8.0 kmh WSW 18.0 mph29.0 kmh 29.37 in994.6 mb 0.00 in0.0 mm 0.00 in0.0 mm 0.09 in2.3 mm